Time;durP1;ratioP1;P1;durP2;ratioP2;P2;SDS_P1;SDS_P2;PMS_P1;PMS_P2;Temp;Humidity;BMP_temperature;BMP_pressure;BME280_temperature;BME280_humidity;BME280_pressure;Samples;Min_cycle;Max_cycle;Signal;HPM_P1;HPM_P2
2020/12/31 00:01:26;;;;;;;1.70;1.10;;;;;;;3.85;87.22;99360.09;5050681;28;20085;-76
2020/12/31 00:03:52;;;;;;;2.95;1.50;;;;;;;3.83;87.10;99351.44;5048633;28;20032;-76
2020/12/31 00:06:17;;;;;;;2.15;1.70;;;;;;;3.85;87.33;99360.09;5048027;28;20541;-76
2020/12/31 00:08:43;;;;;;;3.33;1.50;;;;;;;3.85;87.25;99353.91;5049897;28;20029;-76
2020/12/31 00:11:08;;;;;;;2.10;1.30;;;;;;;3.85;87.38;99349.31;5047491;28;20033;-77
2020/12/31 00:13:34;;;;;;;2.17;1.40;;;;;;;3.86;87.66;99350.91;5047059;28;20033;-76
2020/12/31 00:15:59;;;;;;;3.22;1.30;;;;;;;3.87;87.23;99347.13;5062540;28;20179;-76
2020/12/31 00:18:25;;;;;;;2.60;1.65;;;;;;;3.89;87.63;99349.56;5047174;28;20067;-77
2020/12/31 00:20:50;;;;;;;2.40;1.80;;;;;;;3.91;87.52;99350.94;5047949;28;20072;-76
2020/12/31 00:23:16;;;;;;;3.05;1.60;;;;;;;3.92;87.21;99349.84;5048417;28;20033;-76
2020/12/31 00:25:49;;;;;;;2.78;1.70;;;;;;;3.92;87.59;99355.25;5046351;28;20060;-77
2020/12/31 00:28:15;;;;;;;2.47;1.60;;;;;;;3.94;87.64;99349.59;5045669;28;20424;-76
2020/12/31 00:30:41;;;;;;;3.22;1.92;;;;;;;3.95;87.59;99354.72;5052582;28;20033;-76
2020/12/31 00:33:06;;;;;;;3.47;1.83;;;;;;;3.96;87.60;99350.16;5047332;28;20043;-76
2020/12/31 00:35:32;;;;;;;3.50;2.00;;;;;;;3.97;87.40;99357.16;5047473;28;20053;-76
2020/12/31 00:37:57;;;;;;;2.83;1.80;;;;;;;3.98;87.62;99347.97;5046736;28;20017;-76
2020/12/31 00:40:22;;;;;;;2.80;1.73;;;;;;;3.98;87.38;99359.59;5048735;28;20489;-76
2020/12/31 00:42:48;;;;;;;3.88;1.85;;;;;;;3.99;87.65;99355.81;5046619;28;20024;-76
2020/12/31 00:45:13;;;;;;;3.50;1.75;;;;;;;3.99;87.64;99357.69;5049507;28;20091;-76
2020/12/31 00:47:38;;;;;;;3.85;1.88;;;;;;;4.02;87.82;99359.06;5051119;28;20480;-76
2020/12/31 00:50:04;;;;;;;2.83;1.67;;;;;;;4.02;87.70;99359.88;5051684;28;20021;-76
2020/12/31 00:52:29;;;;;;;3.10;1.80;;;;;;;4.03;87.71;99366.06;5051553;28;20532;-76
2020/12/31 00:54:55;;;;;;;2.58;1.85;;;;;;;4.05;87.48;99361.22;5054088;28;20040;-76
2020/12/31 00:57:20;;;;;;;3.65;1.80;;;;;;;4.07;87.69;99361.78;5036224;28;20029;-76
2020/12/31 00:59:45;;;;;;;3.15;2.00;;;;;;;4.06;87.71;99355.53;5054712;28;20062;-76
2020/12/31 01:02:11;;;;;;;2.67;1.80;;;;;;;4.06;87.50;99358.25;5050972;28;20036;-77
2020/12/31 01:04:36;;;;;;;3.13;2.00;;;;;;;4.07;87.52;99361.78;5067169;28;20025;-76
2020/12/31 01:07:02;;;;;;;2.22;1.60;;;;;;;4.09;87.45;99356.91;5053972;28;20025;-76
2020/12/31 01:09:27;;;;;;;2.67;1.75;;;;;;;4.09;87.74;99365.00;5050140;28;20043;-76
2020/12/31 01:11:55;;;;;;;2.10;1.48;;;;;;;4.09;87.89;99365.81;5085221;28;20043;-77
2020/12/31 01:14:20;;;;;;;2.53;1.50;;;;;;;4.10;87.87;99361.25;5053610;28;20548;-76
2020/12/31 01:16:47;;;;;;;1.77;1.50;;;;;;;4.10;87.82;99366.63;5052482;28;20033;-76
2020/12/31 01:19:13;;;;;;;2.15;1.75;;;;;;;4.10;87.92;99355.84;5053244;28;20063;-76
2020/12/31 01:21:45;;;;;;;2.17;1.50;;;;;;;4.09;87.98;99357.75;5053414;28;20032;-76
2020/12/31 01:24:10;;;;;;;2.60;1.60;;;;;;;4.10;87.84;99355.84;5033931;28;20025;-76
2020/12/31 01:26:36;;;;;;;2.53;1.70;;;;;;;4.11;87.75;99369.06;5035992;28;20025;-76
2020/12/31 01:29:02;;;;;;;2.78;1.65;;;;;;;4.13;88.13;99360.69;5037121;28;20028;-76
2020/12/31 01:31:27;;;;;;;2.67;1.98;;;;;;;4.15;88.19;99358.56;5052192;28;20037;-77
2020/12/31 01:33:52;;;;;;;3.58;2.00;;;;;;;4.15;88.16;99361.25;5043023;28;20040;-77
2020/12/31 01:36:18;;;;;;;2.60;1.63;;;;;;;4.14;87.94;99363.13;5041040;28;20035;-76
2020/12/31 01:38:44;;;;;;;3.13;1.80;;;;;;;4.16;88.21;99368.25;5050191;28;20029;-77
2020/12/31 01:41:10;;;;;;;4.05;1.83;;;;;;;4.17;87.93;99364.47;5054066;28;20463;-76
2020/12/31 01:43:35;;;;;;;4.18;1.92;;;;;;;4.17;87.82;99372.56;5053751;28;20029;-76
2020/12/31 01:46:01;;;;;;;2.80;2.15;;;;;;;4.17;87.61;99367.16;5053076;28;20029;-76
2020/12/31 01:48:26;;;;;;;2.42;1.73;;;;;;;4.16;88.04;99373.66;5053005;28;20017;-77
2020/12/31 01:50:51;;;;;;;2.53;1.75;;;;;;;4.15;88.24;99380.13;5054048;28;20036;-76
2020/12/31 01:53:17;;;;;;;2.28;1.42;;;;;;;4.13;88.08;99376.88;5050389;28;20035;-76
2020/12/31 01:55:42;;;;;;;2.90;1.73;;;;;;;4.11;87.88;99374.44;5018376;28;20033;-76
2020/12/31 01:58:08;;;;;;;2.55;1.70;;;;;;;4.10;88.23;99375.53;5051075;28;20028;-76
2020/12/31 02:00:33;;;;;;;2.55;1.50;;;;;;;4.09;88.31;99375.78;5053518;28;20110;-76
2020/12/31 02:02:58;;;;;;;3.13;1.42;;;;;;;4.08;88.15;99368.78;5052001;28;20032;-77
2020/12/31 02:05:24;;;;;;;2.97;1.70;;;;;;;4.07;88.10;99364.47;5052494;28;20055;-76
2020/12/31 02:07:49;;;;;;;2.67;1.60;;;;;;;4.04;88.10;99367.69;5051412;28;20028;-76
2020/12/31 02:10:15;;;;;;;1.75;1.20;;;;;;;4.03;88.08;99371.47;5052087;28;20386;-76
2020/12/31 02:12:40;;;;;;;2.35;1.20;;;;;;;4.00;88.38;99367.41;5047488;28;20036;-76
2020/12/31 02:15:05;;;;;;;1.33;1.02;;;;;;;4.00;88.34;99370.91;5064550;28;20028;-76
2020/12/31 02:17:31;;;;;;;6.80;1.50;;;;;;;3.98;88.37;99375.78;5051554;28;20463;-76
2020/12/31 02:19:56;;;;;;;3.60;1.27;;;;;;;3.97;88.35;99368.75;5049907;28;20371;-76
2020/12/31 02:22:22;;;;;;;2.00;1.20;;;;;;;3.96;88.27;99361.75;5052123;28;20043;-76
2020/12/31 02:24:47;;;;;;;1.73;1.00;;;;;;;3.96;88.42;99361.75;5052149;28;20477;-77
2020/12/31 02:27:12;;;;;;;2.28;1.10;;;;;;;3.94;88.35;99363.88;5050955;28;20028;-77
2020/12/31 02:29:38;;;;;;;2.63;0.93;;;;;;;3.93;88.50;99362.28;5051877;28;20462;-76
2020/12/31 02:32:03;;;;;;;1.40;1.00;;;;;;;3.90;87.95;99368.19;5052857;28;20035;-77
2020/12/31 02:34:29;;;;;;;3.13;0.98;;;;;;;3.86;88.44;99360.91;5050033;28;20052;-76
2020/12/31 02:36:54;;;;;;;2.35;1.23;;;;;;;3.84;88.31;99363.84;5040232;28;20029;-76
2020/12/31 02:39:19;;;;;;;1.75;1.10;;;;;;;3.84;88.49;99366.53;5065839;28;20462;-76
2020/12/31 02:41:45;;;;;;;0.90;0.70;;;;;;;3.82;88.29;99359.78;5042916;28;20462;-77
2020/12/31 02:44:12;;;;;;;1.48;1.00;;;;;;;3.81;88.41;99360.88;5052153;28;20444;-77
2020/12/31 02:46:37;;;;;;;1.92;1.15;;;;;;;3.80;88.25;99364.66;5051803;28;20021;-77
2020/12/31 02:49:02;;;;;;;2.33;1.02;;;;;;;3.80;88.48;99372.75;5049984;28;20024;-77
2020/12/31 02:51:28;;;;;;;1.70;0.98;;;;;;;3.77;88.20;99368.69;5032386;28;20028;-77
2020/12/31 02:53:53;;;;;;;2.63;1.10;;;;;;;3.76;88.34;99364.34;5050186;28;20032;-77
2020/12/31 02:56:20;;;;;;;3.30;0.90;;;;;;;3.74;88.51;99370.03;5050962;28;20020;-77
2020/12/31 02:58:45;;;;;;;0.90;0.70;;;;;;;3.74;88.17;99369.22;5051809;28;20111;-76
2020/12/31 03:01:11;;;;;;;2.25;0.90;;;;;;;3.71;88.51;99370.56;5049162;28;20107;-77
2020/12/31 03:03:36;;;;;;;1.90;0.88;;;;;;;3.72;88.42;99360.56;5050474;28;20036;-77
2020/12/31 03:06:02;;;;;;;1.80;0.80;;;;;;;3.73;88.61;99367.56;5034439;28;20390;-77
2020/12/31 03:08:28;;;;;;;1.05;0.85;;;;;;;3.73;88.60;99367.56;5051345;28;20025;-77
2020/12/31 03:10:54;;;;;;;1.15;0.63;;;;;;;3.73;88.30;99370.28;5051270;28;20041;-76
2020/12/31 03:13:24;;;;;;;1.95;0.73;;;;;;;3.70;88.41;99360.81;5029732;28;20021;-77
2020/12/31 03:15:51;;;;;;;1.40;0.60;;;;;;;3.70;88.57;99362.72;5051162;28;20025;-77
2020/12/31 03:18:16;;;;;;;1.95;0.68;;;;;;;3.73;88.49;99362.19;5050404;28;20395;-77
2020/12/31 03:20:43;;;;;;;1.85;0.80;;;;;;;3.71;88.51;99356.25;5051803;28;20025;-77
2020/12/31 03:23:10;;;;;;;0.95;0.60;;;;;;;3.71;88.27;99353.53;5034013;28;20028;-77
2020/12/31 03:25:36;;;;;;;1.17;0.57;;;;;;;3.71;88.67;99354.38;5051347;28;20124;-77
2020/12/31 03:28:01;;;;;;;1.50;0.70;;;;;;;3.72;88.72;99355.19;5050171;28;20105;-77
2020/12/31 03:30:26;;;;;;;1.10;0.60;;;;;;;3.69;88.45;99351.13;5052190;28;20021;-76
2020/12/31 03:32:52;;;;;;;0.85;0.38;;;;;;;3.70;88.56;99351.94;5050810;28;20025;-77
2020/12/31 03:35:17;;;;;;;0.60;0.50;;;;;;;3.70;88.51;99354.63;5052109;28;20487;-76
2020/12/31 03:37:43;;;;;;;0.73;0.60;;;;;;;3.72;88.78;99352.50;5049718;28;20040;-77
2020/12/31 03:40:09;;;;;;;2.28;0.60;;;;;;;3.72;88.67;99350.59;5051575;28;20410;-77
2020/12/31 03:42:34;;;;;;;1.17;0.70;;;;;;;3.73;88.65;99356.78;5045628;28;20029;-76
2020/12/31 03:44:59;;;;;;;1.05;0.70;;;;;;;3.74;88.52;99350.34;5050499;28;20048;-77
2020/12/31 03:47:25;;;;;;;1.00;0.65;;;;;;;3.75;88.63;99354.66;5051921;28;20036;-77
2020/12/31 03:49:50;;;;;;;1.10;0.70;;;;;;;3.77;88.89;99352.50;5049666;28;20040;-77
2020/12/31 03:52:15;;;;;;;1.00;0.70;;;;;;;3.78;88.52;99354.13;5044339;28;20021;-78
2020/12/31 03:54:41;;;;;;;1.17;0.65;;;;;;;3.78;88.31;99359.50;5050401;28;20036;-77
2020/12/31 03:57:06;;;;;;;1.15;0.70;;;;;;;3.78;88.21;99349.53;5042072;28;20017;-76
2020/12/31 03:59:31;;;;;;;1.50;0.60;;;;;;;3.81;88.41;99353.59;5045869;28;20040;-77
2020/12/31 04:01:57;;;;;;;1.80;0.70;;;;;;;3.82;88.39;99355.22;5050942;28;20028;-77
2020/12/31 04:04:22;;;;;;;1.95;1.02;;;;;;;3.83;88.55;99353.34;5050998;28;20036;-77
2020/12/31 04:06:49;;;;;;;0.68;0.50;;;;;;;3.83;88.64;99340.66;5051358;28;20028;-77
2020/12/31 04:09:14;;;;;;;1.65;0.70;;;;;;;3.81;88.24;99350.09;5050493;28;20028;-77
2020/12/31 04:11:39;;;;;;;1.25;0.63;;;;;;;3.80;88.36;99354.69;5049523;28;20025;-77
2020/12/31 04:14:05;;;;;;;1.65;0.80;;;;;;;3.82;88.68;99355.22;5051196;28;20036;-76
2020/12/31 04:16:30;;;;;;;1.90;0.52;;;;;;;3.83;88.51;99353.34;5051744;28;20041;-76
2020/12/31 04:18:56;;;;;;;1.17;0.68;;;;;;;3.78;88.41;99348.72;5041660;28;20037;-76
2020/12/31 04:21:21;;;;;;;1.02;0.50;;;;;;;3.76;88.21;99348.19;5051951;28;20024;-77
2020/12/31 04:23:50;;;;;;;0.60;0.47;;;;;;;3.76;88.26;99354.41;5053751;28;20025;-77
2020/12/31 04:26:15;;;;;;;0.57;0.45;;;;;;;3.77;88.53;99352.50;5037854;28;20044;-77
2020/12/31 04:28:41;;;;;;;1.08;0.50;;;;;;;3.78;88.70;99354.94;5053329;28;20474;-76
2020/12/31 04:31:06;;;;;;;0.60;0.40;;;;;;;3.80;88.56;99357.38;5054209;28;20024;-77
2020/12/31 04:33:32;;;;;;;0.60;0.40;;;;;;;3.81;88.44;99358.97;5052386;28;20024;-77
2020/12/31 04:35:57;;;;;;;0.55;0.52;;;;;;;3.80;88.38;99360.06;5052401;28;20049;-77
2020/12/31 04:38:22;;;;;;;1.13;0.50;;;;;;;3.84;88.37;99353.06;5053338;28;20064;-77
2020/12/31 04:40:48;;;;;;;2.45;0.40;;;;;;;3.84;88.16;99353.06;5053858;28;20035;-76
2020/12/31 04:43:13;;;;;;;0.98;0.40;;;;;;;3.86;88.71;99364.41;5049377;28;20033;-77
2020/12/31 04:45:40;;;;;;;1.67;0.63;;;;;;;3.86;88.42;99361.69;5069494;28;20374;-77
2020/12/31 04:48:30;;;;;;;0.57;0.47;;;;;;;3.86;88.68;99361.69;5039490;28;20025;-77
2020/12/31 04:50:55;;;;;;;0.88;0.50;;;;;;;3.87;88.61;99368.69;5047324;28;20641;-77
2020/12/31 04:53:20;;;;;;;0.95;0.60;;;;;;;3.86;88.31;99369.78;5047738;28;20041;-77
2020/12/31 04:55:46;;;;;;;0.65;0.50;;;;;;;3.89;88.86;99371.94;5070597;28;20079;-77
2020/12/31 04:58:14;;;;;;;1.30;0.60;;;;;;;3.91;88.48;99369.00;5053058;28;20541;-77
2020/12/31 05:00:40;;;;;;;1.00;0.70;;;;;;;3.91;88.51;99369.81;5052816;28;20127;-77
2020/12/31 05:03:06;;;;;;;0.50;0.40;;;;;;;3.92;88.51;99376.00;5029496;28;20051;-77
2020/12/31 05:05:32;;;;;;;2.28;0.65;;;;;;;3.94;88.49;99376.56;5036978;28;20412;-76
2020/12/31 05:07:58;;;;;;;1.95;0.50;;;;;;;3.95;88.47;99376.28;5053677;28;20021;-77
2020/12/31 05:10:24;;;;;;;1.10;0.50;;;;;;;3.96;88.54;99372.53;5052595;28;20025;-77
2020/12/31 05:13:02;;;;;;;0.93;0.60;;;;;;;3.96;88.70;99371.72;5048971;28;20493;-77
2020/12/31 05:15:38;;;;;;;1.50;0.65;;;;;;;3.97;88.30;99382.22;5052081;28;20482;-77
2020/12/31 05:18:19;;;;;;;1.52;0.50;;;;;;;3.99;88.74;99376.59;5050700;28;20497;-77
2020/12/31 05:20:46;;;;;;;1.02;0.50;;;;;;;4.00;88.34;99373.59;5050674;28;20021;-77
2020/12/31 05:23:16;;;;;;;0.75;0.40;;;;;;;4.02;88.39;99377.94;5069057;28;20435;-77
2020/12/31 05:25:41;;;;;;;1.23;0.70;;;;;;;4.03;88.43;99376.84;5051101;28;20551;-77
2020/12/31 05:28:29;;;;;;;3.92;0.65;;;;;;;4.02;88.42;99380.63;5048881;28;20033;-77
2020/12/31 05:30:58;;;;;;;1.35;0.60;;;;;;;4.04;88.40;99381.16;5053833;28;20024;-77
2020/12/31 05:33:31;;;;;;;1.67;1.00;;;;;;;4.04;88.60;99383.84;5049658;28;20032;-77
2020/12/31 05:36:18;;;;;;;0.70;0.50;;;;;;;4.05;88.30;99382.78;5052844;28;20045;-78
2020/12/31 05:38:46;;;;;;;1.58;0.70;;;;;;;4.07;88.40;99377.94;5047672;28;20072;-76
2020/12/31 05:41:12;;;;;;;1.77;0.88;;;;;;;4.08;88.34;99382.25;5076520;28;20086;-76
2020/12/31 05:43:39;;;;;;;2.42;0.80;;;;;;;4.10;88.45;99380.13;5045147;28;20196;-77
2020/12/31 05:46:10;;;;;;;1.98;0.65;;;;;;;4.10;88.57;99388.22;5051067;28;20107;-77
2020/12/31 05:48:36;;;;;;;1.67;0.90;;;;;;;4.11;88.71;99389.81;5052976;28;20025;-76
2020/12/31 05:51:21;;;;;;;1.25;0.80;;;;;;;4.11;88.59;99390.63;5050867;28;20025;-76
2020/12/31 05:53:50;;;;;;;2.13;0.70;;;;;;;4.14;88.64;99400.06;5055353;28;20029;-76
2020/12/31 05:56:16;;;;;;;1.30;0.70;;;;;;;4.17;88.46;99394.13;5031882;28;20412;-76
2020/12/31 05:58:48;;;;;;;1.38;0.77;;;;;;;4.19;88.76;99400.91;5057119;28;20040;-76
2020/12/31 06:01:14;;;;;;;1.20;0.82;;;;;;;4.22;88.53;99396.84;5047241;28;20083;-76
2020/12/31 06:03:51;;;;;;;1.42;1.00;;;;;;;4.23;88.74;99403.91;5042083;28;20033;-76
2020/12/31 06:06:18;;;;;;;3.35;1.50;;;;;;;4.24;88.51;99410.91;5085312;28;20414;-76
2020/12/31 06:09:08;;;;;;;2.58;1.35;;;;;;;4.25;88.65;99401.72;5049682;28;20144;-76
2020/12/31 06:11:35;;;;;;;2.17;1.58;;;;;;;4.27;88.60;99404.97;5049527;28;20045;-76
2020/12/31 06:14:03;;;;;;;4.43;1.70;;;;;;;4.27;88.47;99409.56;5044732;28;20076;-76
2020/12/31 06:16:36;;;;;;;2.90;1.90;;;;;;;4.27;88.65;99404.16;5048997;28;20024;-76
2020/12/31 06:19:02;;;;;;;3.17;1.90;;;;;;;4.26;88.57;99408.75;5048236;28;20067;-76
2020/12/31 06:21:41;;;;;;;7.72;2.10;;;;;;;4.27;88.53;99404.97;5027209;28;20808;-77
2020/12/31 06:24:11;;;;;;;3.78;2.08;;;;;;;4.28;88.71;99411.97;5047812;28;20050;-76
2020/12/31 06:26:43;;;;;;;4.88;2.28;;;;;;;4.27;88.62;99412.25;5050193;28;20111;-76
2020/12/31 06:29:09;;;;;;;4.47;2.42;;;;;;;4.26;88.45;99411.44;5059760;28;20082;-77
2020/12/31 06:31:34;;;;;;;6.28;2.20;;;;;;;4.28;88.83;99414.66;5049804;28;20048;-76
2020/12/31 06:33:59;;;;;;;3.40;2.20;;;;;;;4.28;88.61;99416.56;5047210;28;20083;-76
2020/12/31 06:36:33;;;;;;;5.57;2.30;;;;;;;4.27;88.71;99421.16;5049744;28;20070;-76
2020/12/31 06:38:58;;;;;;;6.53;2.15;;;;;;;4.26;88.82;99419.53;5083385;28;20029;-77
2020/12/31 06:41:33;;;;;;;5.07;2.50;;;;;;;4.27;88.81;99426.53;5050194;28;20082;-76
2020/12/31 06:44:07;;;;;;;6.32;2.35;;;;;;;4.26;89.01;99430.34;5051153;28;20074;-77
2020/12/31 06:46:43;;;;;;;4.13;2.55;;;;;;;4.27;88.75;99431.13;5050745;28;20421;-76
2020/12/31 06:49:10;;;;;;;7.88;3.72;;;;;;;4.27;88.76;99431.94;5049754;28;20087;-76
2020/12/31 06:51:35;;;;;;;4.72;2.50;;;;;;;4.27;89.02;99440.03;5046316;28;20379;-76
2020/12/31 06:54:01;;;;;;;6.57;2.85;;;;;;;4.28;88.82;99438.94;5024089;28;20055;-76
2020/12/31 06:56:40;;;;;;;4.60;2.53;;;;;;;4.28;89.10;99449.75;5049506;28;20032;-76
2020/12/31 06:59:25;;;;;;;5.57;2.80;;;;;;;4.30;88.94;99447.59;5050432;28;20025;-76
2020/12/31 07:01:50;;;;;;;4.47;2.50;;;;;;;4.32;88.82;99455.44;5051526;28;20021;-76
2020/12/31 07:04:34;;;;;;;5.78;3.00;;;;;;;4.31;89.14;99451.09;5051018;28;20094;-76
2020/12/31 07:07:18;;;;;;;7.22;3.15;;;;;;;4.34;89.18;99458.69;5051641;28;20075;-76
2020/12/31 07:10:01;;;;;;;5.22;2.60;;;;;;;4.35;88.91;99458.41;5050314;28;20052;-76
2020/12/31 07:12:34;;;;;;;7.07;3.13;;;;;;;4.32;88.90;99456.25;5045528;28;20060;-76
2020/12/31 07:14:59;;;;;;;11.30;3.15;;;;;;;4.32;88.85;99460.81;5048365;28;20047;-77
2020/12/31 07:17:25;;;;;;;7.13;2.75;;;;;;;4.29;88.75;99462.16;5048138;28;20417;-77
2020/12/31 07:19:54;;;;;;;4.25;2.40;;;;;;;4.25;89.01;99460.25;5050886;28;20031;-77
2020/12/31 07:22:20;;;;;;;6.93;2.78;;;;;;;4.22;88.83;99464.28;5027667;28;20427;-76
2020/12/31 07:24:46;;;;;;;9.38;3.20;;;;;;;4.22;89.18;99473.19;5056826;28;20033;-76
2020/12/31 07:27:29;;;;;;;8.98;3.13;;;;;;;4.22;89.11;99472.38;5050684;28;20037;-76
2020/12/31 07:29:59;;;;;;;5.47;2.85;;;;;;;4.24;89.00;99470.25;5033812;28;20050;-77
2020/12/31 07:33:02;;;;;;;7.35;2.95;;;;;;;4.28;89.14;99476.72;5047305;28;20023;-77
2020/12/31 07:35:28;;;;;;;;;;;;;;;4.32;88.99;99472.44;5049970;28;20087;-76
2020/12/31 07:38:09;;;;;;;4.75;2.83;;;;;;;4.34;89.07;99470.28;5049048;28;19970;-76
2020/12/31 07:40:36;;;;;;;6.60;3.05;;;;;;;4.35;89.17;99476.47;5049118;28;20021;-77
2020/12/31 07:43:02;;;;;;;6.97;3.45;;;;;;;4.36;89.18;99480.78;5036323;28;20055;-76
2020/12/31 07:45:28;;;;;;;9.00;3.22;;;;;;;4.36;89.08;99478.91;5065236;28;20470;-77
2020/12/31 07:47:54;;;;;;;4.93;2.83;;;;;;;4.38;89.08;99481.34;5030067;28;20024;-76
2020/12/31 07:50:20;;;;;;;4.68;2.60;;;;;;;4.40;89.32;99480.00;5045591;28;20035;-76
2020/12/31 07:52:45;;;;;;;5.80;3.00;;;;;;;4.40;89.17;99485.41;5045786;28;20033;-77
2020/12/31 07:55:11;;;;;;;4.68;2.78;;;;;;;4.43;88.91;99489.47;5049224;28;20025;-77
2020/12/31 07:57:39;;;;;;;5.13;2.88;;;;;;;4.41;89.08;99481.63;5048740;28;20047;-76
2020/12/31 08:00:12;;;;;;;5.03;2.40;;;;;;;4.39;89.20;99483.78;5032026;28;20024;-77
2020/12/31 08:02:43;;;;;;;6.22;2.28;;;;;;;4.33;89.16;99487.53;5076805;28;20116;-76
2020/12/31 08:05:10;;;;;;;5.57;2.10;;;;;;;4.31;89.21;99484.31;5048848;28;20032;-78
2020/12/31 08:07:35;;;;;;;3.80;1.88;;;;;;;4.32;89.42;99485.91;5044540;28;20040;-77
2020/12/31 08:10:01;;;;;;;3.65;2.10;;;;;;;4.35;89.21;99490.78;5047840;28;20029;-77
2020/12/31 08:12:26;;;;;;;2.92;1.63;;;;;;;4.36;89.18;99495.09;5046703;28;20036;-77
2020/12/31 08:14:52;;;;;;;6.50;1.83;;;;;;;4.35;89.27;99493.47;5043928;28;20025;-77
2020/12/31 08:17:17;;;;;;;2.75;1.70;;;;;;;4.31;89.35;99492.41;5063617;28;20370;-77
2020/12/31 08:19:42;;;;;;;3.15;1.75;;;;;;;4.29;88.85;99491.03;5047350;28;20025;-77
2020/12/31 08:22:19;;;;;;;6.03;2.15;;;;;;;4.29;89.05;99496.44;5048125;28;20041;-77
2020/12/31 08:24:48;;;;;;;3.85;1.77;;;;;;;4.27;89.27;99496.69;5048185;28;20116;-87
2020/12/31 08:27:17;;;;;;;4.90;2.08;;;;;;;4.24;89.19;99505.31;5031595;28;20043;-86
2020/12/31 08:29:43;;;;;;;4.20;2.10;;;;;;;4.22;89.33;99510.16;5030440;28;20021;-87
2020/12/31 08:32:08;;;;;;;5.65;2.17;;;;;;;4.19;89.00;99510.69;5030536;28;20033;-87
2020/12/31 08:34:36;;;;;;;3.13;1.90;;;;;;;4.21;89.53;99513.94;5031644;28;20041;-85
2020/12/31 08:37:01;;;;;;;3.78;2.03;;;;;;;4.24;89.47;99508.00;5047226;28;20036;-87
2020/12/31 08:39:26;;;;;;;2.70;1.70;;;;;;;4.26;89.33;99510.44;5027460;28;20032;-81
2020/12/31 08:42:00;;;;;;;4.05;2.28;;;;;;;4.28;89.57;99519.88;5048317;28;20040;-83
2020/12/31 08:44:28;;;;;;;4.88;2.22;;;;;;;4.32;89.28;99515.59;5029302;28;20043;-83
2020/12/31 08:46:54;;;;;;;4.63;2.00;;;;;;;4.33;89.49;99517.22;5042275;28;20491;-83
2020/12/31 08:49:26;;;;;;;4.40;2.03;;;;;;;4.34;89.48;99523.44;5045797;28;20024;-83
2020/12/31 08:51:52;;;;;;;1.92;1.20;;;;;;;4.35;89.30;99525.84;5080657;28;20037;-83
2020/12/31 08:54:17;;;;;;;2.90;1.65;;;;;;;4.32;89.19;99531.78;5025570;28;20036;-83
2020/12/31 08:56:42;;;;;;;3.08;1.80;;;;;;;4.30;89.31;99528.53;5045419;28;20076;-82
2020/12/31 08:59:12;;;;;;;3.67;1.77;;;;;;;4.33;89.48;99533.38;5045515;28;20036;-83
2020/12/31 09:01:38;;;;;;;4.18;1.60;;;;;;;4.36;89.40;99534.75;5028985;28;20095;-84
2020/12/31 09:04:14;;;;;;;3.85;1.98;;;;;;;4.39;89.61;99543.16;5049183;28;20021;-81
2020/12/31 09:06:43;;;;;;;3.72;1.63;;;;;;;4.42;89.44;99548.03;5029353;28;20025;-81
2020/12/31 09:09:22;;;;;;;4.47;2.00;;;;;;;4.41;89.49;99540.97;5051880;28;20017;-83
2020/12/31 09:12:08;;;;;;;3.83;2.00;;;;;;;4.40;89.36;99546.66;5034388;28;20028;-83
2020/12/31 09:14:37;;;;;;;4.05;1.90;;;;;;;4.39;89.33;99553.94;5030815;28;20080;-82
2020/12/31 09:17:21;;;;;;;2.72;1.98;;;;;;;4.33;89.13;99554.97;5052884;28;20032;-81
2020/12/31 09:19:54;;;;;;;7.40;1.77;;;;;;;4.30;89.34;99560.09;5051272;28;20047;-83
2020/12/31 09:22:19;;;;;;;;;;;;;;;4.33;89.65;99567.66;5078164;28;20559;-83
2020/12/31 09:24:44;;;;;;;3.50;1.60;;;;;;;4.36;89.36;99564.44;5048661;28;19912;-82
2020/12/31 09:27:10;;;;;;;3.05;1.40;;;;;;;4.38;89.33;99563.09;5050894;28;20387;-83
2020/12/31 09:29:35;;;;;;;3.20;1.70;;;;;;;4.38;89.46;99565.78;5048673;28;20032;-83
2020/12/31 09:32:01;;;;;;;3.65;1.42;;;;;;;4.41;89.29;99572.56;5051055;28;20055;-82
2020/12/31 09:34:26;;;;;;;2.13;1.20;;;;;;;4.40;89.24;99570.94;5048809;28;20044;-83
2020/12/31 09:36:58;;;;;;;2.63;1.20;;;;;;;4.39;89.38;99575.53;5047397;28;20026;-83
2020/12/31 09:39:23;;;;;;;3.38;1.30;;;;;;;4.41;89.41;99572.56;5046171;28;20017;-83
2020/12/31 09:41:49;;;;;;;2.05;1.50;;;;;;;4.42;89.44;99577.69;5048315;28;21012;-82
2020/12/31 09:44:14;;;;;;;2.28;1.10;;;;;;;4.40;89.51;99571.75;5047830;28;20036;-83
2020/12/31 09:46:40;;;;;;;6.45;2.03;;;;;;;4.42;89.64;99577.69;5051268;28;20032;-82
2020/12/31 09:49:05;;;;;;;4.38;1.60;;;;;;;4.45;89.45;99579.88;5049689;28;20466;-82
2020/12/31 09:51:30;;;;;;;2.10;1.60;;;;;;;4.51;89.55;99579.91;5053185;28;20029;-84
2020/12/31 09:53:56;;;;;;;2.00;1.45;;;;;;;4.53;89.29;99585.81;5051009;28;20386;-82
2020/12/31 09:56:28;;;;;;;3.22;1.60;;;;;;;4.55;89.63;99583.69;5049939;28;20029;-83
2020/12/31 09:58:53;;;;;;;3.17;1.50;;;;;;;4.58;89.55;99583.16;5050411;28;20078;-83
2020/12/31 10:01:21;;;;;;;2.45;1.55;;;;;;;4.63;89.48;99588.56;5084252;28;20044;-87
2020/12/31 10:03:47;;;;;;;4.05;1.60;;;;;;;4.66;89.33;99579.94;5033048;28;20057;-83
2020/12/31 10:06:12;;;;;;;2.55;1.27;;;;;;;4.66;89.35;99596.13;5047142;28;20543;-83
2020/12/31 10:08:38;;;;;;;3.78;1.60;;;;;;;4.65;89.43;99579.13;5057504;28;20016;-83
2020/12/31 10:11:04;;;;;;;4.75;1.88;;;;;;;4.68;89.45;99586.69;5056372;28;20031;-82
2020/12/31 10:13:30;;;;;;;3.20;1.55;;;;;;;4.70;89.53;99589.16;5055866;28;20039;-83
2020/12/31 10:15:59;;;;;;;3.80;1.60;;;;;;;4.74;89.42;99592.94;5081049;28;20371;-82
2020/12/31 10:18:24;;;;;;;5.05;1.80;;;;;;;4.75;89.69;99589.16;5050241;28;20561;-82
2020/12/31 10:20:49;;;;;;;3.17;1.33;;;;;;;4.75;89.44;99589.16;5045559;28;20031;-82
2020/12/31 10:23:15;;;;;;;5.03;1.65;;;;;;;4.73;89.44;99590.50;5053731;28;20078;-82
2020/12/31 10:25:40;;;;;;;4.47;1.45;;;;;;;4.73;89.27;99596.72;5048989;28;20029;-82
2020/12/31 10:28:06;;;;;;;2.92;1.52;;;;;;;4.74;89.43;99595.63;5043727;28;20018;-82
2020/12/31 10:30:31;;;;;;;2.55;1.60;;;;;;;4.79;89.33;99598.34;5048859;28;20025;-82
2020/12/31 10:32:56;;;;;;;3.35;1.50;;;;;;;4.83;89.24;99612.16;5052364;28;20437;-82
2020/12/31 10:35:22;;;;;;;2.80;1.73;;;;;;;4.84;89.36;99606.47;5051195;28;20051;-82
2020/12/31 10:37:47;;;;;;;5.30;1.75;;;;;;;4.86;89.55;99601.63;5045524;28;20024;-82
2020/12/31 10:40:13;;;;;;;5.03;2.08;;;;;;;4.87;89.52;99608.63;5048174;28;20429;-84
2020/12/31 10:42:38;;;;;;;3.45;1.60;;;;;;;4.90;89.43;99608.09;5048891;28;20028;-83
2020/12/31 10:45:04;;;;;;;5.10;2.30;;;;;;;4.94;89.39;99602.16;5049175;28;20029;-79
2020/12/31 10:47:29;;;;;;;5.07;2.55;;;;;;;4.98;89.46;99605.97;5082973;28;20359;-79
2020/12/31 10:49:55;;;;;;;3.35;1.88;;;;;;;5.00;89.41;99601.94;5047960;28;20036;-80
2020/12/31 10:52:20;;;;;;;2.80;1.77;;;;;;;5.00;89.22;99595.72;5052449;28;20029;-79
2020/12/31 10:54:45;;;;;;;3.30;2.20;;;;;;;5.01;89.25;99591.94;5056461;28;20024;-80
2020/12/31 10:57:11;;;;;;;6.25;2.20;;;;;;;5.00;89.26;99601.94;5050786;28;20102;-79
2020/12/31 10:59:36;;;;;;;5.03;2.38;;;;;;;5.03;89.55;99606.00;5049467;28;20040;-79
2020/12/31 11:02:02;;;;;;;4.35;2.20;;;;;;;5.03;89.34;99601.41;5048207;28;20032;-80
2020/12/31 11:04:27;;;;;;;3.83;2.55;;;;;;;5.07;89.55;99607.06;5052921;28;20017;-80
2020/12/31 11:06:52;;;;;;;3.55;2.38;;;;;;;5.11;89.46;99608.19;5051345;28;20356;-80
2020/12/31 11:09:18;;;;;;;3.10;2.03;;;;;;;5.14;89.46;99610.34;5049544;28;20020;-80
2020/12/31 11:11:43;;;;;;;5.22;2.20;;;;;;;5.18;89.45;99608.72;5056243;28;20036;-80
2020/12/31 11:14:09;;;;;;;2.97;2.38;;;;;;;5.23;89.31;99605.22;5036628;28;20094;-80
2020/12/31 11:16:34;;;;;;;3.40;2.33;;;;;;;5.26;89.45;99607.38;5071014;28;20025;-80
2020/12/31 11:19:00;;;;;;;6.30;2.45;;;;;;;5.26;89.19;99612.78;5047955;28;20029;-79
2020/12/31 11:21:25;;;;;;;3.22;1.90;;;;;;;5.28;89.36;99603.34;5035861;28;20040;-80
2020/12/31 11:23:51;;;;;;;7.47;2.95;;;;;;;5.28;89.12;99607.94;5050492;28;20043;-84
2020/12/31 11:26:20;;;;;;;4.32;2.35;;;;;;;5.26;89.35;99605.50;5034465;28;20037;-84
2020/12/31 11:28:46;;;;;;;5.28;2.40;;;;;;;5.25;89.25;99609.28;5049539;28;20082;-84
2020/12/31 11:31:12;;;;;;;5.20;2.58;;;;;;;5.22;89.12;99615.22;5050091;28;20024;-85
2020/12/31 11:33:44;;;;;;;4.05;2.03;;;;;;;5.20;89.29;99611.97;5050713;28;20437;-82
2020/12/31 11:36:10;;;;;;;;;;;;;;;5.19;89.31;99607.66;5047398;28;20021;-83
2020/12/31 11:38:36;;;;;;;5.63;2.45;;;;;;;5.17;89.27;99612.50;5078862;28;19927;-77
2020/12/31 11:41:02;;;;;;;3.83;2.45;;;;;;;5.18;89.27;99614.13;5036275;28;20433;-77
2020/12/31 11:43:28;;;;;;;6.82;2.63;;;;;;;5.22;89.18;99615.22;5033645;28;20494;-77